Карточка аэропорта UAII

Внимание!
Информация на этой странице в стадии наполнения.
Если вы не увидели какой-то информации, или заметили неточность - пожалуйста сообщите нам!
Спасибо!
Команда RU-STAFF
Название аэропортаШымкент
Название аэропорта (англ.)Shymkent
Превышение1389 ft. (423.4 m.)
Координаты42°21.348', 69°28.734'
Высота перехода10000ft
Эшелон переходаFL120, QNH<733:FL130
Коды ответчика3430-3437, 3530-3537
Зона ОрВДШымкент РПИ (UAII)
Данные METARUAII 271000Z 34002MPS CAVOK 10/M09 Q1021 NOSIG RMK QFE730/0974
Проноз погоды (TAF)UAII 270503Z 2706/2806 09003MPS 6000 SCT040 TX07/2710Z TNM03/2802Z TEMPO 2706/2711 05003MPS 3100 BR SCT011 BECMG 2711/2713 13003G08MPS 3100 BR SCT011 TEMPO 2713/2801 0300 FZFG VV001
NOTAMshow/hide NOTAM
AWOS   TABLE

Информация о ВПП

ВПП Длина ВПП (м.) Покрытие Курс ВПП Частота ILS
103300Железобетон106111.7
283300Железобетон286110.3

Диспетчерские позиции




Спутниковое изображение